This is the latest recevied weather packets stored in our database for station/object K0JSC-13. If no packets are shown the sender has not sent any weather packets the latest 10 day(s).
| Time | Temp. | Humidity | Pressure | Rain* | Wind** | Luminosity | Snow |
|---|---|---|---|---|---|---|---|
| 1777869363 | 16.11° C | 31% | 987.6 hPa | 0 mm | - | - | - |
| 1777867743 | 16.67° C | 31% | 987.4 hPa | 0 mm | - | - | - |
| 1777865223 | 16.67° C | 33% | 987.2 hPa | 0 mm | - | - | - |
| 1777861623 | 17.78° C | 31% | 986.3 hPa | 0 mm | - | - | - |
| 1777860137 | 18.89° C | 28% | 986.2 hPa | 0 mm | - | - | - |
| 1777859777 | 18.89° C | 30% | 986.2 hPa | 0 mm | - | - | - |
| 1777857483 | 21.11° C | 23% | 985.9 hPa | 0 mm | - | - | - |
| 1777853343 | 23.33° C | 17% | 985.9 hPa | 0 mm | - | - | - |
| 1777852803 | 23.33° C | 16% | 985.9 hPa | 0 mm | - | - | - |
| 1777852444 | 23.33° C | 16% | 985.9 hPa | 0 mm | - | - | - |
| 1777848437 | 23.89° C | 18% | 986.3 hPa | 0 mm | - | - | - |
| 1777846143 | 25° C | 18% | 986.9 hPa | 0 mm | - | - | - |
| 1777843083 | 25° C | 15% | 988.1 hPa | 0 mm | - | - | - |
| 1777840023 | 23.33° C | 16% | 989.6 hPa | 0 mm | - | - | - |
| 1777838043 | 22.22° C | 17% | 990.2 hPa | 0 mm | - | - | - |
| 1777820943 | 17.22° C | 32% | 995.4 hPa | 0 mm | - | - | - |
| 1777818424 | 13.33° C | 38% | 996.1 hPa | 0 mm | - | - | - |
| 1777815903 | 12.78° C | 37% | 996.1 hPa | 0 mm | - | - | - |
| 1777813203 | 10.56° C | 42% | 996 hPa | 0 mm | - | - | - |
| 1777811224 | 8.33° C | 49% | 995.8 hPa | 0 mm | - | - | - |
| 1777810683 | 8.89° C | 48% | 995.6 hPa | 0 mm | - | - | - |
| 1777806544 | 9.44° C | 43% | 995.6 hPa | 0 mm | - | - | - |
| 1777802404 | 8.89° C | 45% | 995.7 hPa | 0 mm | - | - | - |
| 1777800423 | 10° C | 40% | 995.8 hPa | 0 mm | - | - | - |
| 1777794843 | 11.11° C | 37% | 996.2 hPa | 0 mm | - | - | - |
* Rain latest hour (hover to see other rain measurements)
** Current wind speed in m/s (hover to see current wind gust speed)